메인 페이지
METAR-TAF:

METAR-TAF

공항 :

콘스탄차, 루마니아

위도: 44-20N, 경도: 028-26E, 고도: 97m

현재 날씨관측

예보는 20분 전, 10:30시(UTC)에 발표되었습니다.
8kt
온도 4°C
습도 81%
기압 1030 hPa
시정: 9000m
고도 2800ft 상공 흐림

METAR: LRCK 181030Z 01008KT 9000 OVC028 04/01 Q1030 NOSIG

시각: 12:50 (10:50 UTC)

예보

예보는 5 시간 50분 전, 05:00시(UTC)에 발표되었습니다.
예보 대상 시간: 18일 06시부터 19일 06시까지 (UTC)
북북서6kt
시정 10km 이상
고도 2500ft 상공 흐림
전환 중
18일 07시부터 18일 09시까지 (UTC)
북동10kt
전환 중
18일 20시부터 18일 22시까지 (UTC)
북북서8kt
일시적
18일 23시부터 19일 05시까지 (UTC)
시정: 3000m
고도 1000ft 상공 구름 많음
박무

TAF: LRCK 180500Z 1806/1906 34006KT 9999 OVC025 BECMG 1807/1809 04010KT BECMG 1820/1822 34008KT TEMPO 1823/1905 3000 BR BKN010

4,000개 이상의 공항 관측 자료 및 예보 (METAR 및 TAF 보고).

지도상에서 검색 가능한 기상관측소가 노란 점과 빨간 점으로 표시되어 있습니다.

기상관측소 명을 보려면 표시 위로 마우스를 이동하세요.

날씨 관측과 예보를 보려면 클릭하세요.

지도 변경 : 확대하려면 엑스 표시가 있는 녹색 버튼, 축소하려면 빼기 표시가 있는 녹색 버튼, 다음 페이지의 지도를 보려면 녹색 화살표를 클릭하세요.


METAR-TAF: